sensor_id;sensor_type;location;lat;lon;timestamp;pressure;altitude;pressure_sealevel;temperature;humidity
39177;BME280;24904;52.208;21.192;2023-04-26T00:04:31;99674.87;;;7.81;82.17
39177;BME280;24904;52.208;21.192;2023-04-26T00:09:35;99679.40;;;7.80;81.72
39177;BME280;24904;52.208;21.192;2023-04-26T00:14:38;99678.29;;;7.78;81.86
39177;BME280;24904;52.208;21.192;2023-04-26T00:19:41;99685.27;;;7.75;81.95
39177;BME280;24904;52.208;21.192;2023-04-26T00:24:45;99685.23;;;7.72;82.12
39177;BME280;24904;52.208;21.192;2023-04-26T00:29:48;99687.08;;;7.70;82.32
39177;BME280;24904;52.208;21.192;2023-04-26T00:34:51;99691.28;;;7.61;82.37
39177;BME280;24904;52.208;21.192;2023-04-26T00:39:54;99693.11;;;7.59;82.71
39177;BME280;24904;52.208;21.192;2023-04-26T00:44:58;99702.73;;;7.53;82.36
39177;BME280;24904;52.208;21.192;2023-04-26T00:50:01;99706.27;;;7.49;82.49
39177;BME280;24904;52.208;21.192;2023-04-26T00:55:07;99713.95;;;7.51;82.88
39177;BME280;24904;52.208;21.192;2023-04-26T01:00:12;99725.17;;;7.50;82.94
39177;BME280;24904;52.208;21.192;2023-04-26T01:05:17;99736.27;;;7.51;82.58
39177;BME280;24904;52.208;21.192;2023-04-26T01:10:20;99742.21;;;7.46;82.44
39177;BME280;24904;52.208;21.192;2023-04-26T01:15:24;99741.26;;;7.39;82.47
39177;BME280;24904;52.208;21.192;2023-04-26T01:20:29;99743.81;;;7.32;81.84
39177;BME280;24904;52.208;21.192;2023-04-26T01:25:32;99748.54;;;7.24;81.42
39177;BME280;24904;52.208;21.192;2023-04-26T01:30:37;99755.61;;;7.17;81.53
39177;BME280;24904;52.208;21.192;2023-04-26T01:35:40;99758.77;;;7.14;81.43
39177;BME280;24904;52.208;21.192;2023-04-26T01:40:43;99759.21;;;7.13;81.27
39177;BME280;24904;52.208;21.192;2023-04-26T01:45:47;99760.41;;;7.15;80.88
39177;BME280;24904;52.208;21.192;2023-04-26T01:51:06;99771.69;;;7.12;80.93
39177;BME280;24904;52.208;21.192;2023-04-26T01:56:09;99781.44;;;7.07;81.09
39177;BME280;24904;52.208;21.192;2023-04-26T02:01:13;99782.14;;;7.03;80.95
39177;BME280;24904;52.208;21.192;2023-04-26T02:06:16;99778.41;;;6.99;80.88
39177;BME280;24904;52.208;21.192;2023-04-26T02:11:19;99778.34;;;6.93;80.60
39177;BME280;24904;52.208;21.192;2023-04-26T02:16:24;99776.04;;;6.91;80.65
39177;BME280;24904;52.208;21.192;2023-04-26T02:21:28;99785.58;;;6.90;80.79
39177;BME280;24904;52.208;21.192;2023-04-26T02:26:32;99789.88;;;6.94;80.99
39177;BME280;24904;52.208;21.192;2023-04-26T02:31:36;99791.88;;;6.97;80.84
39177;BME280;24904;52.208;21.192;2023-04-26T02:36:39;99784.36;;;6.95;80.85
39177;BME280;24904;52.208;21.192;2023-04-26T02:41:42;99784.04;;;6.94;80.98
39177;BME280;24904;52.208;21.192;2023-04-26T02:46:46;99786.66;;;6.92;80.60
39177;BME280;24904;52.208;21.192;2023-04-26T02:51:49;99785.39;;;6.91;80.68
39177;BME280;24904;52.208;21.192;2023-04-26T02:56:53;99782.20;;;6.91;80.75
39177;BME280;24904;52.208;21.192;2023-04-26T03:01:57;99783.26;;;6.94;80.89
39177;BME280;24904;52.208;21.192;2023-04-26T03:07:00;99783.05;;;6.96;80.71
39177;BME280;24904;52.208;21.192;2023-04-26T03:12:04;99780.52;;;6.94;80.84
39177;BME280;24904;52.208;21.192;2023-04-26T03:17:08;99783.68;;;6.97;80.97
39177;BME280;24904;52.208;21.192;2023-04-26T03:22:12;99789.73;;;6.94;80.82
39177;BME280;24904;52.208;21.192;2023-04-26T03:27:17;99793.42;;;6.96;80.98
39177;BME280;24904;52.208;21.192;2023-04-26T03:32:20;99796.37;;;6.95;81.14
39177;BME280;24904;52.208;21.192;2023-04-26T03:37:24;99797.41;;;6.97;81.52
39177;BME280;24904;52.208;21.192;2023-04-26T03:42:33;99798.29;;;6.98;81.34
39177;BME280;24904;52.208;21.192;2023-04-26T03:47:36;99802.02;;;7.02;81.43
39177;BME280;24904;52.208;21.192;2023-04-26T03:52:39;99801.79;;;7.06;81.62
39177;BME280;24904;52.208;21.192;2023-04-26T03:57:42;99806.27;;;7.09;81.69
39177;BME280;24904;52.208;21.192;2023-04-26T04:02:45;99801.07;;;7.10;81.63
39177;BME280;24904;52.208;21.192;2023-04-26T04:07:52;99803.41;;;7.16;81.64
39177;BME280;24904;52.208;21.192;2023-04-26T04:12:55;99806.92;;;7.10;81.40
39177;BME280;24904;52.208;21.192;2023-04-26T04:17:59;99808.13;;;6.99;80.91
39177;BME280;24904;52.208;21.192;2023-04-26T04:23:02;99815.86;;;6.90;81.21
39177;BME280;24904;52.208;21.192;2023-04-26T04:28:07;99817.79;;;6.79;80.82
39177;BME280;24904;52.208;21.192;2023-04-26T04:33:11;99820.13;;;6.75;80.77
39177;BME280;24904;52.208;21.192;2023-04-26T04:38:15;99822.18;;;6.68;80.75
39177;BME280;24904;52.208;21.192;2023-04-26T04:43:19;99824.80;;;6.62;80.56
39177;BME280;24904;52.208;21.192;2023-04-26T04:48:23;99826.02;;;6.51;79.61
39177;BME280;24904;52.208;21.192;2023-04-26T04:53:26;99833.18;;;6.39;79.46
39177;BME280;24904;52.208;21.192;2023-04-26T04:58:30;99840.03;;;6.34;79.28
39177;BME280;24904;52.208;21.192;2023-04-26T05:03:33;99844.33;;;6.35;79.72
39177;BME280;24904;52.208;21.192;2023-04-26T05:14:15;99848.92;;;6.51;79.76
39177;BME280;24904;52.208;21.192;2023-04-26T05:19:18;99855.60;;;6.54;79.30
39177;BME280;24904;52.208;21.192;2023-04-26T05:24:22;99862.50;;;6.65;79.18
39177;BME280;24904;52.208;21.192;2023-04-26T05:29:28;99867.04;;;6.57;78.29
39177;BME280;24904;52.208;21.192;2023-04-26T05:34:42;99873.86;;;6.55;78.03
39177;BME280;24904;52.208;21.192;2023-04-26T05:40:28;99878.47;;;6.56;77.17
39177;BME280;24904;52.208;21.192;2023-04-26T05:45:31;99881.08;;;6.46;77.21
39177;BME280;24904;52.208;21.192;2023-04-26T05:50:35;99882.23;;;6.33;76.49
39177;BME280;24904;52.208;21.192;2023-04-26T05:55:39;99882.45;;;6.33;76.63
39177;BME280;24904;52.208;21.192;2023-04-26T06:04:30;99895.84;;;6.39;75.98
39177;BME280;24904;52.208;21.192;2023-04-26T06:09:40;99899.79;;;6.34;75.48
39177;BME280;24904;52.208;21.192;2023-04-26T06:14:44;99904.21;;;6.38;75.70
39177;BME280;24904;52.208;21.192;2023-04-26T06:19:51;99906.31;;;6.46;75.68
39177;BME280;24904;52.208;21.192;2023-04-26T06:24:54;99903.45;;;6.54;75.15
39177;BME280;24904;52.208;21.192;2023-04-26T06:29:57;99905.66;;;6.63;74.38
39177;BME280;24904;52.208;21.192;2023-04-26T06:35:40;99903.47;;;6.72;74.34
39177;BME280;24904;52.208;21.192;2023-04-26T06:40:44;99902.73;;;6.90;74.35
39177;BME280;24904;52.208;21.192;2023-04-26T06:45:49;99904.93;;;7.13;74.07
39177;BME280;24904;52.208;21.192;2023-04-26T06:50:54;99902.95;;;7.30;73.43
39177;BME280;24904;52.208;21.192;2023-04-26T06:55:58;99903.89;;;7.49;73.04
39177;BME280;24904;52.208;21.192;2023-04-26T07:01:01;99899.59;;;7.69;71.87
39177;BME280;24904;52.208;21.192;2023-04-26T07:09:52;99902.83;;;8.11;71.33
39177;BME280;24904;52.208;21.192;2023-04-26T07:14:56;99905.39;;;8.32;71.12
39177;BME280;24904;52.208;21.192;2023-04-26T07:19:59;99902.66;;;8.49;69.08
39177;BME280;24904;52.208;21.192;2023-04-26T07:25:02;99911.23;;;8.48;67.91
39177;BME280;24904;52.208;21.192;2023-04-26T07:30:08;99913.19;;;8.48;66.52
39177;BME280;24904;52.208;21.192;2023-04-26T07:35:12;99912.67;;;8.58;66.58
39177;BME280;24904;52.208;21.192;2023-04-26T07:40:17;99917.66;;;8.62;65.71
39177;BME280;24904;52.208;21.192;2023-04-26T07:45:21;99915.53;;;8.75;64.96
39177;BME280;24904;52.208;21.192;2023-04-26T07:50:24;99917.81;;;8.90;64.90
39177;BME280;24904;52.208;21.192;2023-04-26T07:55:28;99923.15;;;9.00;63.63
39177;BME280;24904;52.208;21.192;2023-04-26T08:00:31;99927.91;;;8.91;63.50
39177;BME280;24904;52.208;21.192;2023-04-26T08:05:34;99932.11;;;8.98;63.77
39177;BME280;24904;52.208;21.192;2023-04-26T08:10:40;99934.05;;;9.03;62.74
39177;BME280;24904;52.208;21.192;2023-04-26T08:15:44;99937.10;;;8.87;61.53
39177;BME280;24904;52.208;21.192;2023-04-26T08:20:47;99944.40;;;8.76;62.11
39177;BME280;24904;52.208;21.192;2023-04-26T08:25:50;99946.14;;;8.63;60.68
39177;BME280;24904;52.208;21.192;2023-04-26T08:30:53;99946.95;;;8.59;60.12
39177;BME280;24904;52.208;21.192;2023-04-26T08:35:58;99940.00;;;8.81;61.65
39177;BME280;24904;52.208;21.192;2023-04-26T08:41:05;99950.12;;;8.89;60.39
39177;BME280;24904;52.208;21.192;2023-04-26T08:46:16;99954.06;;;8.80;59.97
39177;BME280;24904;52.208;21.192;2023-04-26T08:51:21;99957.66;;;8.80;59.89
39177;BME280;24904;52.208;21.192;2023-04-26T08:56:25;99958.92;;;8.94;58.85
39177;BME280;24904;52.208;21.192;2023-04-26T09:01:29;99960.80;;;8.94;56.91
39177;BME280;24904;52.208;21.192;2023-04-26T09:06:33;99963.02;;;8.82;57.12
39177;BME280;24904;52.208;21.192;2023-04-26T09:11:51;99972.27;;;8.72;57.23
39177;BME280;24904;52.208;21.192;2023-04-26T09:16:54;99977.37;;;8.54;57.96
39177;BME280;24904;52.208;21.192;2023-04-26T09:21:58;99984.84;;;8.45;56.95
39177;BME280;24904;52.208;21.192;2023-04-26T09:27:02;99986.90;;;8.48;58.01
39177;BME280;24904;52.208;21.192;2023-04-26T09:32:05;99987.27;;;8.62;57.81
39177;BME280;24904;52.208;21.192;2023-04-26T09:37:11;99985.40;;;8.71;58.28
39177;BME280;24904;52.208;21.192;2023-04-26T09:42:16;99987.70;;;8.79;58.26
39177;BME280;24904;52.208;21.192;2023-04-26T09:47:21;99992.73;;;8.75;57.74
39177;BME280;24904;52.208;21.192;2023-04-26T09:52:24;99992.98;;;8.63;57.15
39177;BME280;24904;52.208;21.192;2023-04-26T09:57:30;99995.54;;;8.50;57.15
39177;BME280;24904;52.208;21.192;2023-04-26T10:02:33;99998.18;;;8.38;57.12
39177;BME280;24904;52.208;21.192;2023-04-26T10:07:36;99995.77;;;8.30;56.79
39177;BME280;24904;52.208;21.192;2023-04-26T10:12:43;99997.27;;;8.31;56.64
39177;BME280;24904;52.208;21.192;2023-04-26T10:17:47;99999.90;;;8.38;55.97
39177;BME280;24904;52.208;21.192;2023-04-26T10:22:52;100002.27;;;8.46;55.79
39177;BME280;24904;52.208;21.192;2023-04-26T10:27:56;100005.38;;;8.44;54.15
39177;BME280;24904;52.208;21.192;2023-04-26T10:33:16;100009.33;;;8.47;54.94
39177;BME280;24904;52.208;21.192;2023-04-26T10:38:19;100011.38;;;8.66;55.48
39177;BME280;24904;52.208;21.192;2023-04-26T10:43:29;100016.29;;;8.72;54.10
39177;BME280;24904;52.208;21.192;2023-04-26T10:48:33;100019.26;;;8.71;54.59
39177;BME280;24904;52.208;21.192;2023-04-26T10:53:57;100028.35;;;8.66;54.26
39177;BME280;24904;52.208;21.192;2023-04-26T10:59:09;100028.92;;;8.61;52.27
39177;BME280;24904;52.208;21.192;2023-04-26T11:04:12;100030.23;;;8.73;52.11
39177;BME280;24904;52.208;21.192;2023-04-26T11:09:35;100029.20;;;8.72;51.53
39177;BME280;24904;52.208;21.192;2023-04-26T11:14:39;100035.08;;;8.66;51.12
39177;BME280;24904;52.208;21.192;2023-04-26T11:19:46;100038.96;;;8.64;50.66
39177;BME280;24904;52.208;21.192;2023-04-26T11:24:49;100038.70;;;8.61;49.63
39177;BME280;24904;52.208;21.192;2023-04-26T11:29:55;100039.91;;;8.65;50.09
39177;BME280;24904;52.208;21.192;2023-04-26T11:35:00;100044.93;;;8.72;49.96
39177;BME280;24904;52.208;21.192;2023-04-26T11:40:05;100053.84;;;8.84;50.03
39177;BME280;24904;52.208;21.192;2023-04-26T11:45:13;100052.80;;;8.87;50.43
39177;BME280;24904;52.208;21.192;2023-04-26T11:50:18;100055.67;;;8.81;50.38
39177;BME280;24904;52.208;21.192;2023-04-26T11:55:29;100058.03;;;8.74;50.56
39177;BME280;24904;52.208;21.192;2023-04-26T12:00:34;100063.81;;;8.74;49.97
39177;BME280;24904;52.208;21.192;2023-04-26T12:05:37;100058.65;;;8.80;49.74
39177;BME280;24904;52.208;21.192;2023-04-26T12:10:40;100052.44;;;9.09;50.45
39177;BME280;24904;52.208;21.192;2023-04-26T12:15:45;100055.54;;;9.33;48.78
39177;BME280;24904;52.208;21.192;2023-04-26T12:20:49;100063.02;;;9.38;48.96
39177;BME280;24904;52.208;21.192;2023-04-26T12:25:59;100073.15;;;9.20;48.86
39177;BME280;24904;52.208;21.192;2023-04-26T12:31:06;100077.70;;;9.08;49.20
39177;BME280;24904;52.208;21.192;2023-04-26T12:36:11;100080.98;;;8.97;48.29
39177;BME280;24904;52.208;21.192;2023-04-26T12:41:14;100088.18;;;8.89;48.20
39177;BME280;24904;52.208;21.192;2023-04-26T12:46:17;100093.11;;;8.89;49.02
39177;BME280;24904;52.208;21.192;2023-04-26T12:51:20;100094.68;;;8.97;48.85
39177;BME280;24904;52.208;21.192;2023-04-26T12:56:23;100099.09;;;8.93;48.53
39177;BME280;24904;52.208;21.192;2023-04-26T13:01:27;100104.55;;;8.85;48.16
39177;BME280;24904;52.208;21.192;2023-04-26T13:06:30;100114.84;;;8.77;48.22
39177;BME280;24904;52.208;21.192;2023-04-26T13:11:33;100116.21;;;8.74;47.73
39177;BME280;24904;52.208;21.192;2023-04-26T13:16:36;100118.27;;;8.75;47.67
39177;BME280;24904;52.208;21.192;2023-04-26T13:21:43;100114.45;;;8.83;47.52
39177;BME280;24904;52.208;21.192;2023-04-26T13:26:47;100115.57;;;8.89;47.47
39177;BME280;24904;52.208;21.192;2023-04-26T13:31:50;100115.58;;;8.90;47.62
39177;BME280;24904;52.208;21.192;2023-04-26T13:36:54;100125.38;;;8.81;47.31
39177;BME280;24904;52.208;21.192;2023-04-26T13:41:59;100134.35;;;8.74;47.77
39177;BME280;24904;52.208;21.192;2023-04-26T13:47:03;100139.34;;;8.73;48.11
39177;BME280;24904;52.208;21.192;2023-04-26T13:52:06;100142.26;;;8.80;48.38
39177;BME280;24904;52.208;21.192;2023-04-26T13:57:09;100141.74;;;8.93;48.41
39177;BME280;24904;52.208;21.192;2023-04-26T14:02:13;100144.86;;;8.92;46.83
39177;BME280;24904;52.208;21.192;2023-04-26T14:07:16;100149.36;;;8.85;47.16
39177;BME280;24904;52.208;21.192;2023-04-26T14:12:19;100159.27;;;8.77;46.93
39177;BME280;24904;52.208;21.192;2023-04-26T14:17:22;100163.39;;;8.75;47.12
39177;BME280;24904;52.208;21.192;2023-04-26T14:22:27;100166.29;;;8.71;46.33
39177;BME280;24904;52.208;21.192;2023-04-26T14:27:30;100171.20;;;8.70;46.24
39177;BME280;24904;52.208;21.192;2023-04-26T14:32:33;100178.63;;;8.74;46.18
39177;BME280;24904;52.208;21.192;2023-04-26T14:37:37;100177.40;;;8.76;46.27
39177;BME280;24904;52.208;21.192;2023-04-26T14:42:40;100179.91;;;8.76;46.49
39177;BME280;24904;52.208;21.192;2023-04-26T14:47:47;100186.45;;;8.80;47.19
39177;BME280;24904;52.208;21.192;2023-04-26T14:52:50;100189.52;;;8.86;47.40
39177;BME280;24904;52.208;21.192;2023-04-26T15:02:42;100192.30;;;8.78;47.48
39177;BME280;24904;52.208;21.192;2023-04-26T15:07:46;100202.68;;;8.77;47.66
39177;BME280;24904;52.208;21.192;2023-04-26T15:12:49;100204.28;;;8.80;47.79
39177;BME280;24904;52.208;21.192;2023-04-26T15:17:52;100210.83;;;8.78;46.81
39177;BME280;24904;52.208;21.192;2023-04-26T15:22:55;100213.02;;;8.64;46.49
39177;BME280;24904;52.208;21.192;2023-04-26T15:27:58;100218.11;;;8.55;47.37
39177;BME280;24904;52.208;21.192;2023-04-26T15:33:01;100214.10;;;8.54;47.71
39177;BME280;24904;52.208;21.192;2023-04-26T15:38:04;100218.77;;;8.53;47.80
39177;BME280;24904;52.208;21.192;2023-04-26T15:43:07;100214.09;;;8.53;47.95
39177;BME280;24904;52.208;21.192;2023-04-26T15:48:11;100213.59;;;8.56;48.51
39177;BME280;24904;52.208;21.192;2023-04-26T15:53:14;100212.78;;;8.63;48.59
39177;BME280;24904;52.208;21.192;2023-04-26T15:58:17;100212.39;;;8.59;48.87
39177;BME280;24904;52.208;21.192;2023-04-26T16:03:20;100211.64;;;8.51;48.96
39177;BME280;24904;52.208;21.192;2023-04-26T16:15:27;100218.99;;;8.51;48.80
39177;BME280;24904;52.208;21.192;2023-04-26T16:20:30;100224.11;;;8.49;47.83
39177;BME280;24904;52.208;21.192;2023-04-26T16:25:33;100225.36;;;8.40;47.73
39177;BME280;24904;52.208;21.192;2023-04-26T16:30:36;100231.67;;;8.39;47.85
39177;BME280;24904;52.208;21.192;2023-04-26T16:35:40;100240.46;;;8.33;47.66
39177;BME280;24904;52.208;21.192;2023-04-26T16:40:43;100247.79;;;8.28;47.71
39177;BME280;24904;52.208;21.192;2023-04-26T16:45:46;100246.87;;;8.25;48.12
39177;BME280;24904;52.208;21.192;2023-04-26T16:50:49;100254.83;;;8.20;48.00
39177;BME280;24904;52.208;21.192;2023-04-26T16:55:52;100258.38;;;8.22;48.33
39177;BME280;24904;52.208;21.192;2023-04-26T17:00:56;100262.89;;;8.25;49.22
39177;BME280;24904;52.208;21.192;2023-04-26T17:05:59;100263.32;;;8.28;49.39
39177;BME280;24904;52.208;21.192;2023-04-26T17:11:02;100263.34;;;8.28;49.09
39177;BME280;24904;52.208;21.192;2023-04-26T17:16:06;100265.30;;;8.32;49.31
39177;BME280;24904;52.208;21.192;2023-04-26T17:21:10;100270.41;;;8.30;49.12
39177;BME280;24904;52.208;21.192;2023-04-26T17:26:13;100277.79;;;8.27;49.31
39177;BME280;24904;52.208;21.192;2023-04-26T17:31:16;100277.20;;;8.21;49.03
39177;BME280;24904;52.208;21.192;2023-04-26T17:36:19;100280.41;;;8.21;49.16
39177;BME280;24904;52.208;21.192;2023-04-26T17:41:23;100280.95;;;8.20;49.38
39177;BME280;24904;52.208;21.192;2023-04-26T17:46:26;100279.41;;;8.22;49.66
39177;BME280;24904;52.208;21.192;2023-04-26T17:51:29;100285.02;;;8.21;49.95
39177;BME280;24904;52.208;21.192;2023-04-26T17:56:32;100289.81;;;8.18;49.63
39177;BME280;24904;52.208;21.192;2023-04-26T18:01:35;100299.92;;;8.13;49.85
39177;BME280;24904;52.208;21.192;2023-04-26T18:06:38;100304.60;;;8.08;50.12
39177;BME280;24904;52.208;21.192;2023-04-26T18:11:41;100311.48;;;8.08;50.23
39177;BME280;24904;52.208;21.192;2023-04-26T18:16:48;100314.61;;;8.09;50.58
39177;BME280;24904;52.208;21.192;2023-04-26T18:30:19;100325.70;;;8.08;50.72
39177;BME280;24904;52.208;21.192;2023-04-26T18:35:22;100327.90;;;8.04;50.70
39177;BME280;24904;52.208;21.192;2023-04-26T18:40:25;100330.88;;;8.04;50.52
39177;BME280;24904;52.208;21.192;2023-04-26T18:45:28;100336.41;;;8.04;50.39
39177;BME280;24904;52.208;21.192;2023-04-26T18:50:31;100343.06;;;8.04;50.46
39177;BME280;24904;52.208;21.192;2023-04-26T18:55:34;100347.38;;;8.06;50.59
39177;BME280;24904;52.208;21.192;2023-04-26T19:00:38;100348.39;;;8.02;50.00
39177;BME280;24904;52.208;21.192;2023-04-26T19:05:41;100352.17;;;8.00;49.78
39177;BME280;24904;52.208;21.192;2023-04-26T19:10:44;100354.37;;;8.00;50.15
39177;BME280;24904;52.208;21.192;2023-04-26T19:15:47;100355.95;;;8.01;49.97
39177;BME280;24904;52.208;21.192;2023-04-26T19:20:50;100360.61;;;8.00;49.89
39177;BME280;24904;52.208;21.192;2023-04-26T19:25:53;100362.68;;;7.98;50.35
39177;BME280;24904;52.208;21.192;2023-04-26T19:31:03;100363.34;;;7.96;50.68
39177;BME280;24904;52.208;21.192;2023-04-26T19:36:08;100366.05;;;7.94;51.80
39177;BME280;24904;52.208;21.192;2023-04-26T19:41:11;100371.61;;;7.89;51.84
39177;BME280;24904;52.208;21.192;2023-04-26T19:46:14;100375.23;;;7.83;52.60
39177;BME280;24904;52.208;21.192;2023-04-26T19:51:17;100375.80;;;7.76;53.22
39177;BME280;24904;52.208;21.192;2023-04-26T19:56:20;100376.98;;;7.66;53.66
39177;BME280;24904;52.208;21.192;2023-04-26T20:01:24;100376.36;;;7.54;53.84
39177;BME280;24904;52.208;21.192;2023-04-26T20:06:27;100376.73;;;7.46;54.09
39177;BME280;24904;52.208;21.192;2023-04-26T20:11:30;100376.19;;;7.39;54.03
39177;BME280;24904;52.208;21.192;2023-04-26T20:16:33;100378.63;;;7.27;54.73
39177;BME280;24904;52.208;21.192;2023-04-26T20:21:36;100380.90;;;7.15;55.57
39177;BME280;24904;52.208;21.192;2023-04-26T20:26:40;100381.41;;;6.98;55.99
39177;BME280;24904;52.208;21.192;2023-04-26T20:31:43;100387.65;;;6.86;56.70
39177;BME280;24904;52.208;21.192;2023-04-26T20:36:46;100390.63;;;6.69;56.90
39177;BME280;24904;52.208;21.192;2023-04-26T20:41:52;100392.98;;;6.55;56.98
39177;BME280;24904;52.208;21.192;2023-04-26T20:46:55;100394.02;;;6.39;57.47
39177;BME280;24904;52.208;21.192;2023-04-26T20:51:58;100397.52;;;6.23;57.67
39177;BME280;24904;52.208;21.192;2023-04-26T20:57:01;100399.23;;;6.07;58.09
39177;BME280;24904;52.208;21.192;2023-04-26T21:02:05;100403.23;;;5.90;58.19
39177;BME280;24904;52.208;21.192;2023-04-26T21:07:09;100403.30;;;5.75;58.51
39177;BME280;24904;52.208;21.192;2023-04-26T21:12:12;100407.46;;;5.61;58.68
39177;BME280;24904;52.208;21.192;2023-04-26T21:17:15;100407.92;;;5.46;59.35
39177;BME280;24904;52.208;21.192;2023-04-26T21:22:19;100411.09;;;5.38;59.82
39177;BME280;24904;52.208;21.192;2023-04-26T21:27:22;100418.66;;;5.29;60.01
39177;BME280;24904;52.208;21.192;2023-04-26T21:32:25;100419.25;;;5.21;60.08
39177;BME280;24904;52.208;21.192;2023-04-26T21:37:28;100423.02;;;5.11;60.51
39177;BME280;24904;52.208;21.192;2023-04-26T21:42:31;100428.48;;;4.97;60.74
39177;BME280;24904;52.208;21.192;2023-04-26T21:47:34;100433.70;;;4.89;60.96
39177;BME280;24904;52.208;21.192;2023-04-26T21:52:37;100442.91;;;4.77;61.38
39177;BME280;24904;52.208;21.192;2023-04-26T21:57:40;100448.91;;;4.70;61.59
39177;BME280;24904;52.208;21.192;2023-04-26T22:02:43;100453.23;;;4.59;61.80
39177;BME280;24904;52.208;21.192;2023-04-26T22:07:46;100462.15;;;4.48;62.12
39177;BME280;24904;52.208;21.192;2023-04-26T22:12:49;100467.44;;;4.42;62.38
39177;BME280;24904;52.208;21.192;2023-04-26T22:17:52;100470.90;;;4.39;62.70
39177;BME280;24904;52.208;21.192;2023-04-26T22:22:55;100471.16;;;4.31;62.75
39177;BME280;24904;52.208;21.192;2023-04-26T22:27:58;100474.56;;;4.21;63.05
39177;BME280;24904;52.208;21.192;2023-04-26T22:33:02;100474.75;;;4.13;63.38
39177;BME280;24904;52.208;21.192;2023-04-26T22:38:05;100478.05;;;4.06;63.67
39177;BME280;24904;52.208;21.192;2023-04-26T22:43:08;100479.86;;;3.99;63.96
39177;BME280;24904;52.208;21.192;2023-04-26T22:48:11;100482.86;;;3.94;64.08
39177;BME280;24904;52.208;21.192;2023-04-26T22:53:14;100486.59;;;3.88;64.41
39177;BME280;24904;52.208;21.192;2023-04-26T22:58:17;100491.82;;;3.78;64.47
39177;BME280;24904;52.208;21.192;2023-04-26T23:03:20;100495.91;;;3.71;64.74
39177;BME280;24904;52.208;21.192;2023-04-26T23:08:23;100504.02;;;3.63;64.49
39177;BME280;24904;52.208;21.192;2023-04-26T23:13:27;100509.42;;;3.56;64.86
39177;BME280;24904;52.208;21.192;2023-04-26T23:18:30;100516.63;;;3.50;65.20
39177;BME280;24904;52.208;21.192;2023-04-26T23:23:33;100516.88;;;3.43;65.32
39177;BME280;24904;52.208;21.192;2023-04-26T23:28:37;100521.79;;;3.44;65.89
39177;BME280;24904;52.208;21.192;2023-04-26T23:33:40;100527.31;;;3.35;65.62
39177;BME280;24904;52.208;21.192;2023-04-26T23:38:43;100531.42;;;3.27;65.85
39177;BME280;24904;52.208;21.192;2023-04-26T23:43:46;100533.61;;;3.21;66.12
39177;BME280;24904;52.208;21.192;2023-04-26T23:48:49;100535.48;;;3.21;66.45
39177;BME280;24904;52.208;21.192;2023-04-26T23:53:52;100539.19;;;3.17;66.26
39177;BME280;24904;52.208;21.192;2023-04-26T23:58:55;100542.36;;;3.12;66.29
